Van Cott, New York
Current Conditions -  °F | °C
As of 12:51 PM on Wednesday 28 Jan 2015 (Local Time) from KLGA Reporting Station
Few Clouds Few Clouds  
Wind Chill: 21°   Ceiling: Unl
Heat Index: 30°   Visibility: 10mi
Dew Point: 11°   Wind: 12mph
Humidity: 45%   Direction: 310°NW
Pressure: 30.05"   Gusts: NA
Location:  40.8778°N, 73.8721°W
Report Text: KLGA 281751Z 31010KT 10SM FEW120 M01/M12 A3005 RMK AO2 SLP177 4/008 933010 T10111117 11011 21078 50003
Loading
Personal Weather Stations






























Interactive Weather Map New forecast layout! Learn more

10-Day Weather Forecast

Advertisements
Track Severe Weather on mobile